sensor_id;sensor_type;location;lat;lon;timestamp;pressure;altitude;pressure_sealevel;temperature;humidity
31062;BME280;17724;53.546;9.974;2023-02-04T00:03:21;102828.94;;;5.44;90.13
31062;BME280;17724;53.546;9.974;2023-02-04T00:07:22;102829.47;;;5.40;90.12
31062;BME280;17724;53.546;9.974;2023-02-04T00:11:22;102822.63;;;5.52;90.36
31062;BME280;17724;53.546;9.974;2023-02-04T00:15:23;102833.69;;;5.59;90.61
31062;BME280;17724;53.546;9.974;2023-02-04T00:19:23;102842.75;;;5.51;89.92
31062;BME280;17724;53.546;9.974;2023-02-04T00:23:24;102840.72;;;5.37;90.20
31062;BME280;17724;53.546;9.974;2023-02-04T00:27:24;102860.50;;;5.47;90.39
31062;BME280;17724;53.546;9.974;2023-02-04T00:31:25;102863.06;;;5.40;90.27
31062;BME280;17724;53.546;9.974;2023-02-04T00:35:25;102878.91;;;5.53;90.31
31062;BME280;17724;53.546;9.974;2023-02-04T00:39:26;102891.56;;;5.38;90.19
31062;BME280;17724;53.546;9.974;2023-02-04T00:43:27;102892.06;;;5.33;90.54
31062;BME280;17724;53.546;9.974;2023-02-04T00:47:27;102911.53;;;5.47;90.35
31062;BME280;17724;53.546;9.974;2023-02-04T00:51:29;102912.72;;;5.36;90.43
31062;BME280;17724;53.546;9.974;2023-02-04T00:55:30;102925.50;;;5.43;91.50
31062;BME280;17724;53.546;9.974;2023-02-04T00:59:32;102938.94;;;5.53;91.05
31062;BME280;17724;53.546;9.974;2023-02-04T01:03:32;102956.72;;;5.41;90.97
31062;BME280;17724;53.546;9.974;2023-02-04T01:07:33;102960.81;;;5.12;90.99
31062;BME280;17724;53.546;9.974;2023-02-04T01:11:33;102986.19;;;5.05;91.67
31062;BME280;17724;53.546;9.974;2023-02-04T01:15:34;102989.25;;;5.10;91.95
31062;BME280;17724;53.546;9.974;2023-02-04T01:19:35;102998.66;;;5.07;92.67
31062;BME280;17724;53.546;9.974;2023-02-04T01:23:35;103013.28;;;5.06;92.59
31062;BME280;17724;53.546;9.974;2023-02-04T01:27:36;103022.38;;;5.15;93.34
31062;BME280;17724;53.546;9.974;2023-02-04T01:31:37;103028.31;;;5.18;92.79
31062;BME280;17724;53.546;9.974;2023-02-04T01:35:37;103032.38;;;5.06;92.97
31062;BME280;17724;53.546;9.974;2023-02-04T01:39:38;103035.31;;;5.13;93.29
31062;BME280;17724;53.546;9.974;2023-02-04T01:43:38;103040.38;;;4.91;93.15
31062;BME280;17724;53.546;9.974;2023-02-04T01:47:39;103046.19;;;5.05;93.94
31062;BME280;17724;53.546;9.974;2023-02-04T01:51:39;103051.16;;;5.09;94.34
31062;BME280;17724;53.546;9.974;2023-02-04T01:55:40;103064.47;;;5.12;94.02
31062;BME280;17724;53.546;9.974;2023-02-04T01:59:45;103067.19;;;5.21;94.10
31062;BME280;17724;53.546;9.974;2023-02-04T02:03:46;103065.63;;;5.02;94.06
31062;BME280;17724;53.546;9.974;2023-02-04T02:07:47;103074.50;;;5.04;94.13
31062;BME280;17724;53.546;9.974;2023-02-04T02:11:48;103086.38;;;4.94;94.30
31062;BME280;17724;53.546;9.974;2023-02-04T02:15:49;103094.97;;;5.08;94.70
31062;BME280;17724;53.546;9.974;2023-02-04T02:19:49;103097.00;;;5.14;94.90
31062;BME280;17724;53.546;9.974;2023-02-04T02:23:54;103086.31;;;4.78;95.37
31062;BME280;17724;53.546;9.974;2023-02-04T02:28:01;103108.56;;;5.00;96.27
31062;BME280;17724;53.546;9.974;2023-02-04T02:32:03;103118.88;;;5.22;96.10
31062;BME280;17724;53.546;9.974;2023-02-04T02:36:04;103133.97;;;5.00;95.95
31062;BME280;17724;53.546;9.974;2023-02-04T02:40:05;103139.75;;;4.97;97.24
31062;BME280;17724;53.546;9.974;2023-02-04T02:44:08;103143.34;;;5.06;97.29
31062;BME280;17724;53.546;9.974;2023-02-04T02:48:10;103149.53;;;5.08;96.72
31062;BME280;17724;53.546;9.974;2023-02-04T02:52:12;103168.25;;;5.03;96.99
31062;BME280;17724;53.546;9.974;2023-02-04T02:56:12;103178.31;;;5.10;96.90
31062;BME280;17724;53.546;9.974;2023-02-04T03:00:17;103184.31;;;5.14;97.08
31062;BME280;17724;53.546;9.974;2023-02-04T03:04:19;103188.38;;;5.10;97.14
31062;BME280;17724;53.546;9.974;2023-02-04T03:08:21;103205.13;;;5.15;97.00
31062;BME280;17724;53.546;9.974;2023-02-04T03:12:22;103218.63;;;4.90;97.24
31062;BME280;17724;53.546;9.974;2023-02-04T03:16:22;103217.53;;;5.09;97.77
31062;BME280;17724;53.546;9.974;2023-02-04T03:20:24;103217.84;;;5.06;98.70
31062;BME280;17724;53.546;9.974;2023-02-04T03:24:26;103230.81;;;5.04;98.43
31062;BME280;17724;53.546;9.974;2023-02-04T03:28:27;103239.19;;;5.03;98.39
31062;BME280;17724;53.546;9.974;2023-02-04T03:32:29;103237.72;;;4.90;98.24
31062;BME280;17724;53.546;9.974;2023-02-04T03:36:29;103256.75;;;4.82;98.06
31062;BME280;17724;53.546;9.974;2023-02-04T03:40:30;103271.78;;;4.86;97.65
31062;BME280;17724;53.546;9.974;2023-02-04T03:44:30;103288.31;;;4.85;97.60
31062;BME280;17724;53.546;9.974;2023-02-04T03:48:31;103304.28;;;4.80;97.80
31062;BME280;17724;53.546;9.974;2023-02-04T03:52:31;103303.88;;;4.75;97.82
31062;BME280;17724;53.546;9.974;2023-02-04T03:56:32;103303.69;;;4.68;98.33
31062;BME280;17724;53.546;9.974;2023-02-04T04:00:32;103314.72;;;4.66;98.78
31062;BME280;17724;53.546;9.974;2023-02-04T04:04:33;103322.78;;;4.50;98.50
31062;BME280;17724;53.546;9.974;2023-02-04T04:08:33;103332.28;;;4.46;98.84
31062;BME280;17724;53.546;9.974;2023-02-04T04:12:34;103332.44;;;4.44;99.45
31062;BME280;17724;53.546;9.974;2023-02-04T04:16:34;103337.72;;;4.64;99.50
31062;BME280;17724;53.546;9.974;2023-02-04T04:20:35;103353.69;;;4.41;99.49
31062;BME280;17724;53.546;9.974;2023-02-04T04:24:35;103366.63;;;4.57;99.84
31062;BME280;17724;53.546;9.974;2023-02-04T04:28:36;103362.56;;;4.61;98.85
31062;BME280;17724;53.546;9.974;2023-02-04T04:32:36;103376.03;;;4.62;98.07
31062;BME280;17724;53.546;9.974;2023-02-04T04:36:37;103369.19;;;4.40;98.41
31062;BME280;17724;53.546;9.974;2023-02-04T04:40:37;103383.28;;;4.54;98.06
31062;BME280;17724;53.546;9.974;2023-02-04T04:44:38;103393.88;;;4.57;98.27
31062;BME280;17724;53.546;9.974;2023-02-04T04:48:38;103402.13;;;4.65;97.33
31062;BME280;17724;53.546;9.974;2023-02-04T04:52:38;103396.44;;;4.58;96.53
31062;BME280;17724;53.546;9.974;2023-02-04T04:56:39;103402.34;;;4.36;97.83
31062;BME280;17724;53.546;9.974;2023-02-04T05:00:40;103403.13;;;4.46;97.53
31062;BME280;17724;53.546;9.974;2023-02-04T05:04:40;103408.78;;;4.35;97.41
31062;BME280;17724;53.546;9.974;2023-02-04T05:08:41;103415.75;;;4.47;97.61
31062;BME280;17724;53.546;9.974;2023-02-04T05:12:41;103431.00;;;4.40;97.75
31062;BME280;17724;53.546;9.974;2023-02-04T05:16:42;103446.13;;;4.52;97.34
31062;BME280;17724;53.546;9.974;2023-02-04T05:20:42;103440.03;;;4.40;97.72
31062;BME280;17724;53.546;9.974;2023-02-04T05:24:43;103459.75;;;4.52;98.51
31062;BME280;17724;53.546;9.974;2023-02-04T05:28:43;103456.19;;;4.52;97.84
31062;BME280;17724;53.546;9.974;2023-02-04T05:32:43;103469.84;;;4.42;97.78
31062;BME280;17724;53.546;9.974;2023-02-04T05:36:44;103463.09;;;4.46;97.58
31062;BME280;17724;53.546;9.974;2023-02-04T05:40:44;103475.47;;;4.40;97.24
31062;BME280;17724;53.546;9.974;2023-02-04T05:44:45;103487.41;;;4.30;96.69
31062;BME280;17724;53.546;9.974;2023-02-04T05:48:45;103491.78;;;4.13;96.50
31062;BME280;17724;53.546;9.974;2023-02-04T05:52:46;103500.25;;;4.19;96.02
31062;BME280;17724;53.546;9.974;2023-02-04T05:56:46;103503.63;;;4.31;95.06
31062;BME280;17724;53.546;9.974;2023-02-04T06:00:46;103509.25;;;4.20;96.08
31062;BME280;17724;53.546;9.974;2023-02-04T06:04:47;103510.50;;;4.35;95.36
31062;BME280;17724;53.546;9.974;2023-02-04T06:08:47;103512.22;;;4.27;94.48
31062;BME280;17724;53.546;9.974;2023-02-04T06:12:48;103531.97;;;4.38;93.73
31062;BME280;17724;53.546;9.974;2023-02-04T06:16:48;103527.97;;;4.33;93.39
31062;BME280;17724;53.546;9.974;2023-02-04T06:20:49;103530.03;;;4.21;93.61
31062;BME280;17724;53.546;9.974;2023-02-04T06:24:49;103541.59;;;4.33;93.92
31062;BME280;17724;53.546;9.974;2023-02-04T06:28:49;103550.13;;;4.20;94.11
31062;BME280;17724;53.546;9.974;2023-02-04T06:32:50;103560.19;;;4.10;94.80
31062;BME280;17724;53.546;9.974;2023-02-04T06:36:50;103557.06;;;4.42;94.27
31062;BME280;17724;53.546;9.974;2023-02-04T06:40:51;103575.44;;;4.30;93.57
31062;BME280;17724;53.546;9.974;2023-02-04T06:44:52;103584.34;;;4.32;93.66
31062;BME280;17724;53.546;9.974;2023-02-04T06:48:53;103587.38;;;4.29;93.50
31062;BME280;17724;53.546;9.974;2023-02-04T06:52:53;103593.97;;;4.27;92.79
31062;BME280;17724;53.546;9.974;2023-02-04T06:56:54;103607.00;;;4.33;91.51
31062;BME280;17724;53.546;9.974;2023-02-04T07:00:54;103617.06;;;4.23;90.84
31062;BME280;17724;53.546;9.974;2023-02-04T07:04:55;103620.06;;;4.29;91.60
31062;BME280;17724;53.546;9.974;2023-02-04T07:08:55;103622.91;;;4.37;91.93
31062;BME280;17724;53.546;9.974;2023-02-04T07:12:56;103636.81;;;4.44;90.57
31062;BME280;17724;53.546;9.974;2023-02-04T07:16:56;103646.16;;;4.22;89.73
31062;BME280;17724;53.546;9.974;2023-02-04T07:20:57;103659.94;;;4.20;90.94
31062;BME280;17724;53.546;9.974;2023-02-04T07:24:58;103658.25;;;4.10;91.46
31062;BME280;17724;53.546;9.974;2023-02-04T07:28:58;103663.41;;;4.13;91.92
31062;BME280;17724;53.546;9.974;2023-02-04T07:32:59;103659.81;;;4.12;91.52
31062;BME280;17724;53.546;9.974;2023-02-04T07:36:59;103670.16;;;4.09;91.50
31062;BME280;17724;53.546;9.974;2023-02-04T07:41:00;103669.28;;;3.99;92.05
31062;BME280;17724;53.546;9.974;2023-02-04T07:45:00;103674.84;;;4.26;91.67
31062;BME280;17724;53.546;9.974;2023-02-04T07:49:01;103668.13;;;4.11;92.18
31062;BME280;17724;53.546;9.974;2023-02-04T07:53:01;103684.91;;;4.06;92.08
31062;BME280;17724;53.546;9.974;2023-02-04T07:57:02;103687.50;;;3.98;91.93
31062;BME280;17724;53.546;9.974;2023-02-04T08:01:02;103699.53;;;4.05;91.79
31062;BME280;17724;53.546;9.974;2023-02-04T08:05:03;103699.09;;;4.19;91.91
31062;BME280;17724;53.546;9.974;2023-02-04T08:09:04;103701.25;;;4.16;91.25
31062;BME280;17724;53.546;9.974;2023-02-04T08:13:04;103695.66;;;4.17;91.85
31062;BME280;17724;53.546;9.974;2023-02-04T08:17:05;103709.88;;;4.11;92.82
31062;BME280;17724;53.546;9.974;2023-02-04T08:21:05;103711.44;;;4.24;92.44
31062;BME280;17724;53.546;9.974;2023-02-04T08:25:06;103707.25;;;4.10;93.65
31062;BME280;17724;53.546;9.974;2023-02-04T08:29:07;103710.84;;;4.10;93.19
31062;BME280;17724;53.546;9.974;2023-02-04T08:33:08;103722.59;;;4.40;92.15
31062;BME280;17724;53.546;9.974;2023-02-04T08:37:08;103722.88;;;4.17;90.61
31062;BME280;17724;53.546;9.974;2023-02-04T08:41:09;103727.63;;;4.15;91.04
31062;BME280;17724;53.546;9.974;2023-02-04T08:45:10;103732.78;;;4.09;91.20
31062;BME280;17724;53.546;9.974;2023-02-04T08:49:10;103729.91;;;4.10;90.03
31062;BME280;17724;53.546;9.974;2023-02-04T08:53:10;103718.47;;;3.97;90.60
31062;BME280;17724;53.546;9.974;2023-02-04T08:57:11;103743.09;;;4.25;90.16
31062;BME280;17724;53.546;9.974;2023-02-04T09:01:12;103748.97;;;4.39;90.17
31062;BME280;17724;53.546;9.974;2023-02-04T09:05:12;103746.06;;;4.51;90.45
31062;BME280;17724;53.546;9.974;2023-02-04T09:09:13;103743.81;;;4.36;90.56
31062;BME280;17724;53.546;9.974;2023-02-04T09:13:13;103760.75;;;4.40;89.74
31062;BME280;17724;53.546;9.974;2023-02-04T09:17:14;103757.84;;;4.41;88.96
31062;BME280;17724;53.546;9.974;2023-02-04T09:21:14;103772.78;;;4.47;88.37
31062;BME280;17724;53.546;9.974;2023-02-04T09:25:15;103777.50;;;4.55;88.46
31062;BME280;17724;53.546;9.974;2023-02-04T09:29:15;103787.97;;;4.50;87.58
31062;BME280;17724;53.546;9.974;2023-02-04T09:33:16;103775.34;;;4.58;88.00
31062;BME280;17724;53.546;9.974;2023-02-04T09:37:16;103779.22;;;4.56;87.65
31062;BME280;17724;53.546;9.974;2023-02-04T09:41:17;103790.66;;;4.79;87.50
31062;BME280;17724;53.546;9.974;2023-02-04T09:45:25;103790.84;;;4.67;86.34
31062;BME280;17724;53.546;9.974;2023-02-04T09:49:27;103786.22;;;4.58;87.35
31062;BME280;17724;53.546;9.974;2023-02-04T09:53:29;103787.91;;;4.79;87.28
31062;BME280;17724;53.546;9.974;2023-02-04T09:57:30;103797.28;;;4.76;86.23
31062;BME280;17724;53.546;9.974;2023-02-04T10:01:30;103802.00;;;4.84;87.00
31062;BME280;17724;53.546;9.974;2023-02-04T10:05:32;103800.13;;;4.84;84.77
31062;BME280;17724;53.546;9.974;2023-02-04T10:09:36;103809.16;;;4.85;83.73
31062;BME280;17724;53.546;9.974;2023-02-04T10:13:42;103815.72;;;5.02;83.53
31062;BME280;17724;53.546;9.974;2023-02-04T10:17:54;103828.06;;;5.06;83.02
31062;BME280;17724;53.546;9.974;2023-02-04T10:21:57;103837.38;;;5.23;83.16
31062;BME280;17724;53.546;9.974;2023-02-04T10:25:57;103832.03;;;5.31;82.76
31062;BME280;17724;53.546;9.974;2023-02-04T10:29:58;103833.63;;;5.24;81.99
31062;BME280;17724;53.546;9.974;2023-02-04T10:34:15;103827.38;;;4.94;82.00
31062;BME280;17724;53.546;9.974;2023-02-04T10:38:16;103824.81;;;5.30;82.51
31062;BME280;17724;53.546;9.974;2023-02-04T10:42:26;103834.59;;;5.32;81.55
31062;BME280;17724;53.546;9.974;2023-02-04T10:46:29;103837.34;;;5.60;82.30
31062;BME280;17724;53.546;9.974;2023-02-04T10:50:31;103832.19;;;5.57;81.23
31062;BME280;17724;53.546;9.974;2023-02-04T10:54:37;103851.13;;;5.96;82.23
31062;BME280;17724;53.546;9.974;2023-02-04T10:58:38;103838.34;;;5.86;80.58
31062;BME280;17724;53.546;9.974;2023-02-04T11:06:45;103858.78;;;5.92;78.13
31062;BME280;17724;53.546;9.974;2023-02-04T11:10:49;103860.38;;;6.12;78.34
31062;BME280;17724;53.546;9.974;2023-02-04T11:14:56;103851.88;;;6.15;78.16
31062;BME280;17724;53.546;9.974;2023-02-04T11:18:58;103849.22;;;6.24;77.93
31062;BME280;17724;53.546;9.974;2023-02-04T11:27:37;103861.09;;;6.14;78.45
31062;BME280;17724;53.546;9.974;2023-02-04T11:36:03;103857.22;;;5.80;78.16
31062;BME280;17724;53.546;9.974;2023-02-04T11:40:20;103850.38;;;6.03;77.67
31062;BME280;17724;53.546;9.974;2023-02-04T11:44:21;103853.97;;;6.04;77.39
31062;BME280;17724;53.546;9.974;2023-02-04T11:48:24;103858.66;;;6.11;76.89
31062;BME280;17724;53.546;9.974;2023-02-04T11:52:24;103862.41;;;6.10;76.82
31062;BME280;17724;53.546;9.974;2023-02-04T11:56:27;103858.72;;;6.02;75.98
31062;BME280;17724;53.546;9.974;2023-02-04T12:00:31;103866.22;;;6.00;74.76
31062;BME280;17724;53.546;9.974;2023-02-04T12:04:32;103867.88;;;6.28;75.84
31062;BME280;17724;53.546;9.974;2023-02-04T12:08:34;103871.25;;;6.40;74.30
31062;BME280;17724;53.546;9.974;2023-02-04T12:12:47;103867.81;;;6.20;72.01
31062;BME280;17724;53.546;9.974;2023-02-04T12:16:49;103879.28;;;6.41;72.43
31062;BME280;17724;53.546;9.974;2023-02-04T12:20:54;103875.22;;;6.46;73.08
31062;BME280;17724;53.546;9.974;2023-02-04T12:24:55;103880.94;;;6.52;71.56
31062;BME280;17724;53.546;9.974;2023-02-04T12:28:55;103884.28;;;6.28;69.76
31062;BME280;17724;53.546;9.974;2023-02-04T12:32:56;103885.34;;;6.17;71.08
31062;BME280;17724;53.546;9.974;2023-02-04T12:36:57;103881.94;;;6.15;70.90
31062;BME280;17724;53.546;9.974;2023-02-04T12:40:57;103891.59;;;6.10;70.30
31062;BME280;17724;53.546;9.974;2023-02-04T12:44:57;103886.88;;;6.02;70.29
31062;BME280;17724;53.546;9.974;2023-02-04T12:48:58;103903.19;;;5.94;69.57
31062;BME280;17724;53.546;9.974;2023-02-04T12:52:59;103901.56;;;6.01;69.33
31062;BME280;17724;53.546;9.974;2023-02-04T12:56:59;103901.59;;;5.91;69.74
31062;BME280;17724;53.546;9.974;2023-02-04T13:01:02;103896.44;;;5.88;70.21
31062;BME280;17724;53.546;9.974;2023-02-04T13:05:02;103899.78;;;6.10;70.01
31062;BME280;17724;53.546;9.974;2023-02-04T13:09:03;103902.38;;;6.11;70.45
31062;BME280;17724;53.546;9.974;2023-02-04T13:13:03;103907.28;;;6.08;70.47
31062;BME280;17724;53.546;9.974;2023-02-04T13:17:05;103904.69;;;6.06;70.26
31062;BME280;17724;53.546;9.974;2023-02-04T13:21:05;103911.25;;;5.96;71.50
31062;BME280;17724;53.546;9.974;2023-02-04T13:25:06;103907.78;;;5.93;70.76
31062;BME280;17724;53.546;9.974;2023-02-04T13:29:09;103899.75;;;5.92;69.75
31062;BME280;17724;53.546;9.974;2023-02-04T13:33:11;103899.59;;;5.93;71.90
31062;BME280;17724;53.546;9.974;2023-02-04T13:37:14;103910.50;;;6.03;71.50
31062;BME280;17724;53.546;9.974;2023-02-04T13:41:15;103902.69;;;6.26;71.48
31062;BME280;17724;53.546;9.974;2023-02-04T13:45:16;103908.63;;;6.22;69.64
31062;BME280;17724;53.546;9.974;2023-02-04T13:49:18;103904.50;;;6.17;69.00
31062;BME280;17724;53.546;9.974;2023-02-04T13:53:18;103919.00;;;6.18;68.13
31062;BME280;17724;53.546;9.974;2023-02-04T13:57:19;103916.34;;;6.08;67.82
31062;BME280;17724;53.546;9.974;2023-02-04T14:01:20;103912.88;;;6.34;69.68
31062;BME280;17724;53.546;9.974;2023-02-04T14:05:21;103918.59;;;6.23;69.41
31062;BME280;17724;53.546;9.974;2023-02-04T14:09:21;103917.75;;;6.58;70.90
31062;BME280;17724;53.546;9.974;2023-02-04T14:13:22;103922.28;;;6.49;69.51
31062;BME280;17724;53.546;9.974;2023-02-04T14:17:23;103921.41;;;6.49;70.42
31062;BME280;17724;53.546;9.974;2023-02-04T14:21:23;103922.06;;;6.60;71.13
31062;BME280;17724;53.546;9.974;2023-02-04T14:25:24;103928.47;;;6.69;71.04
31062;BME280;17724;53.546;9.974;2023-02-04T14:29:24;103926.25;;;6.09;68.47
31062;BME280;17724;53.546;9.974;2023-02-04T14:33:25;103926.13;;;6.11;69.42
31062;BME280;17724;53.546;9.974;2023-02-04T14:37:25;103935.97;;;5.94;69.91
31062;BME280;17724;53.546;9.974;2023-02-04T14:41:28;103922.72;;;5.89;69.77
31062;BME280;17724;53.546;9.974;2023-02-04T14:45:30;103936.16;;;5.73;69.66
31062;BME280;17724;53.546;9.974;2023-02-04T14:49:31;103936.34;;;5.72;69.18
31062;BME280;17724;53.546;9.974;2023-02-04T14:53:32;103938.78;;;5.65;69.93
31062;BME280;17724;53.546;9.974;2023-02-04T14:57:32;103942.25;;;5.67;70.51
31062;BME280;17724;53.546;9.974;2023-02-04T15:01:33;103943.97;;;5.58;70.36
31062;BME280;17724;53.546;9.974;2023-02-04T15:05:33;103936.84;;;5.85;70.77
31062;BME280;17724;53.546;9.974;2023-02-04T15:09:33;103939.25;;;5.98;69.90
31062;BME280;17724;53.546;9.974;2023-02-04T15:13:34;103937.34;;;5.71;70.22
31062;BME280;17724;53.546;9.974;2023-02-04T15:17:34;103941.69;;;5.63;71.65
31062;BME280;17724;53.546;9.974;2023-02-04T15:21:35;103950.84;;;5.72;72.34
31062;BME280;17724;53.546;9.974;2023-02-04T15:25:35;103930.72;;;5.73;72.56
31062;BME280;17724;53.546;9.974;2023-02-04T15:29:36;103930.59;;;5.65;72.95
31062;BME280;17724;53.546;9.974;2023-02-04T15:33:37;103948.56;;;5.67;73.77
31062;BME280;17724;53.546;9.974;2023-02-04T15:37:37;103936.72;;;5.39;73.45
31062;BME280;17724;53.546;9.974;2023-02-04T15:41:38;103937.66;;;5.58;74.83
31062;BME280;17724;53.546;9.974;2023-02-04T15:45:38;103942.19;;;5.30;73.65
31062;BME280;17724;53.546;9.974;2023-02-04T15:49:42;103937.84;;;5.37;73.23
31062;BME280;17724;53.546;9.974;2023-02-04T15:53:43;103937.28;;;5.43;73.17
31062;BME280;17724;53.546;9.974;2023-02-04T15:57:44;103940.88;;;5.34;73.04
31062;BME280;17724;53.546;9.974;2023-02-04T16:01:44;103950.53;;;5.18;72.95
31062;BME280;17724;53.546;9.974;2023-02-04T16:05:45;103942.06;;;5.12;73.37
31062;BME280;17724;53.546;9.974;2023-02-04T16:09:45;103953.13;;;5.20;73.35
31062;BME280;17724;53.546;9.974;2023-02-04T16:13:46;103956.59;;;5.03;73.37
31062;BME280;17724;53.546;9.974;2023-02-04T16:17:47;103959.72;;;4.98;73.90
31062;BME280;17724;53.546;9.974;2023-02-04T16:21:47;103957.00;;;5.08;73.38
31062;BME280;17724;53.546;9.974;2023-02-04T16:25:48;103953.81;;;5.22;74.15
31062;BME280;17724;53.546;9.974;2023-02-04T16:29:48;103957.72;;;5.00;73.19
31062;BME280;17724;53.546;9.974;2023-02-04T16:33:49;103955.13;;;4.99;73.25
31062;BME280;17724;53.546;9.974;2023-02-04T16:37:49;103955.72;;;4.92;72.78
31062;BME280;17724;53.546;9.974;2023-02-04T16:41:50;103963.75;;;4.84;73.43
31062;BME280;17724;53.546;9.974;2023-02-04T16:45:50;103967.66;;;4.91;74.29
31062;BME280;17724;53.546;9.974;2023-02-04T16:49:51;103968.22;;;4.95;73.96
31062;BME280;17724;53.546;9.974;2023-02-04T16:53:53;103974.53;;;4.86;74.25
31062;BME280;17724;53.546;9.974;2023-02-04T16:57:53;103969.91;;;4.86;74.32
31062;BME280;17724;53.546;9.974;2023-02-04T17:01:55;103974.97;;;5.01;73.87
31062;BME280;17724;53.546;9.974;2023-02-04T17:05:56;103977.25;;;5.05;73.77
31062;BME280;17724;53.546;9.974;2023-02-04T17:09:57;103973.38;;;5.08;75.64
31062;BME280;17724;53.546;9.974;2023-02-04T17:14:00;103969.72;;;5.46;77.97
31062;BME280;17724;53.546;9.974;2023-02-04T17:18:00;103971.72;;;5.54;78.60
31062;BME280;17724;53.546;9.974;2023-02-04T17:22:01;103976.56;;;5.79;79.34
31062;BME280;17724;53.546;9.974;2023-02-04T17:26:02;103977.34;;;5.42;74.22
31062;BME280;17724;53.546;9.974;2023-02-04T17:30:02;103982.72;;;5.05;74.26
31062;BME280;17724;53.546;9.974;2023-02-04T17:34:04;103977.69;;;5.01;74.51
31062;BME280;17724;53.546;9.974;2023-02-04T17:38:05;103983.84;;;4.74;74.20
31062;BME280;17724;53.546;9.974;2023-02-04T17:42:05;103996.34;;;4.76;73.94
31062;BME280;17724;53.546;9.974;2023-02-04T17:46:06;103991.88;;;4.65;73.97
31062;BME280;17724;53.546;9.974;2023-02-04T17:50:09;103990.41;;;4.52;73.88
31062;BME280;17724;53.546;9.974;2023-02-04T17:54:11;103982.09;;;4.53;73.84
31062;BME280;17724;53.546;9.974;2023-02-04T17:58:12;103970.28;;;4.33;74.38
31062;BME280;17724;53.546;9.974;2023-02-04T18:06:22;103968.25;;;4.26;75.04
31062;BME280;17724;53.546;9.974;2023-02-04T18:10:31;103967.22;;;4.27;75.46
31062;BME280;17724;53.546;9.974;2023-02-04T18:14:32;103978.88;;;4.38;75.84
31062;BME280;17724;53.546;9.974;2023-02-04T18:18:39;103976.66;;;4.13;75.49
31062;BME280;17724;53.546;9.974;2023-02-04T18:22:40;103987.84;;;4.10;76.50
31062;BME280;17724;53.546;9.974;2023-02-04T18:26:50;103982.81;;;4.05;76.62
31062;BME280;17724;53.546;9.974;2023-02-04T18:30:52;104000.28;;;4.03;77.02
31062;BME280;17724;53.546;9.974;2023-02-04T18:35:01;103990.66;;;3.99;77.11
31062;BME280;17724;53.546;9.974;2023-02-04T18:39:14;103997.38;;;3.94;78.37
31062;BME280;17724;53.546;9.974;2023-02-04T18:43:26;103998.63;;;4.11;77.70
31062;BME280;17724;53.546;9.974;2023-02-04T18:47:33;103986.41;;;4.56;81.11
31062;BME280;17724;53.546;9.974;2023-02-04T18:51:39;103995.44;;;4.56;77.99
31062;BME280;17724;53.546;9.974;2023-02-04T18:55:51;104005.03;;;4.10;77.00
31062;BME280;17724;53.546;9.974;2023-02-04T18:59:52;103996.75;;;4.12;78.20
31062;BME280;17724;53.546;9.974;2023-02-04T19:03:58;103994.78;;;3.93;78.91
31062;BME280;17724;53.546;9.974;2023-02-04T19:12:17;103999.81;;;3.98;79.32
31062;BME280;17724;53.546;9.974;2023-02-04T19:16:34;103998.63;;;4.11;79.12
31062;BME280;17724;53.546;9.974;2023-02-04T19:20:35;103999.00;;;3.76;79.20
31062;BME280;17724;53.546;9.974;2023-02-04T19:24:37;103999.78;;;3.67;79.85
31062;BME280;17724;53.546;9.974;2023-02-04T19:28:38;103995.75;;;3.61;80.14
31062;BME280;17724;53.546;9.974;2023-02-04T19:32:43;103994.06;;;3.60;79.83
31062;BME280;17724;53.546;9.974;2023-02-04T19:36:45;103979.66;;;3.49;79.56
31062;BME280;17724;53.546;9.974;2023-02-04T19:40:47;103987.41;;;3.53;79.75
31062;BME280;17724;53.546;9.974;2023-02-04T19:44:50;103996.97;;;3.48;79.45
31062;BME280;17724;53.546;9.974;2023-02-04T19:48:51;103988.88;;;3.36;79.76
31062;BME280;17724;53.546;9.974;2023-02-04T19:56:55;103998.56;;;3.29;79.64
31062;BME280;17724;53.546;9.974;2023-02-04T20:00:59;103994.31;;;3.15;80.37
31062;BME280;17724;53.546;9.974;2023-02-04T20:05:18;103991.03;;;3.01;80.79
31062;BME280;17724;53.546;9.974;2023-02-04T20:09:20;103979.47;;;2.87;81.62
31062;BME280;17724;53.546;9.974;2023-02-04T20:13:25;103978.66;;;3.08;81.31
31062;BME280;17724;53.546;9.974;2023-02-04T20:17:37;103982.44;;;3.16;80.95
31062;BME280;17724;53.546;9.974;2023-02-04T20:21:40;103972.72;;;3.03;81.37
31062;BME280;17724;53.546;9.974;2023-02-04T20:25:43;103965.81;;;2.99;81.92
31062;BME280;17724;53.546;9.974;2023-02-04T20:29:46;103950.25;;;3.21;85.51
31062;BME280;17724;53.546;9.974;2023-02-04T20:33:49;103942.88;;;3.12;83.39
31062;BME280;17724;53.546;9.974;2023-02-04T20:37:58;103952.38;;;3.18;84.27
31062;BME280;17724;53.546;9.974;2023-02-04T20:46:23;103954.06;;;2.98;83.94
31062;BME280;17724;53.546;9.974;2023-02-04T20:50:37;103948.41;;;2.69;83.90
31062;BME280;17724;53.546;9.974;2023-02-04T20:54:40;103946.06;;;2.64;85.23
31062;BME280;17724;53.546;9.974;2023-02-04T20:58:42;103938.38;;;2.26;85.90
31062;BME280;17724;53.546;9.974;2023-02-04T21:02:43;103944.81;;;2.25;86.86
31062;BME280;17724;53.546;9.974;2023-02-04T21:06:44;103948.53;;;2.24;87.49
31062;BME280;17724;53.546;9.974;2023-02-04T21:10:45;103960.88;;;2.17;88.63
31062;BME280;17724;53.546;9.974;2023-02-04T21:14:46;103954.59;;;2.16;89.25
31062;BME280;17724;53.546;9.974;2023-02-04T21:18:46;103966.31;;;2.06;89.36
31062;BME280;17724;53.546;9.974;2023-02-04T21:22:47;103974.69;;;2.03;89.57
31062;BME280;17724;53.546;9.974;2023-02-04T21:26:47;103966.81;;;2.00;90.43
31062;BME280;17724;53.546;9.974;2023-02-04T21:30:48;103965.06;;;2.21;90.59
31062;BME280;17724;53.546;9.974;2023-02-04T21:34:49;103974.75;;;2.89;92.17
31062;BME280;17724;53.546;9.974;2023-02-04T21:38:49;103982.72;;;2.70;89.08
31062;BME280;17724;53.546;9.974;2023-02-04T21:42:51;103991.22;;;2.33;89.13
31062;BME280;17724;53.546;9.974;2023-02-04T21:46:51;103978.00;;;2.40;92.57
31062;BME280;17724;53.546;9.974;2023-02-04T21:50:52;103984.19;;;2.74;92.54